Southworth, Washington
Current Conditions -  °F | °C
As of 11:53 PM on Thursday 18 Dec 2014 (Local Time) from KBFI Reporting Station
Light Rain Light Rain  
Wind Chill: 51°   Ceiling: 5500
Heat Index: 51°   Visibility: 10mi
Dew Point: 46°   Wind: 7mph
Humidity: 83%   Direction: 160°SSE
Pressure: 29.79"   Gusts: 18mph
Location:  47.51°N, 122.5°W
Report Text: KBFI 190753Z 16006G16KT 10SM -RA SCT042 BKN055 OVC070 11/08 A2979 RMK AO2 SLP086 P0007 T01060078 401060078
Loading
Personal Weather Stations






























Interactive Weather Map New forecast layout! Learn more

10-Day Weather Forecast

Advertisements
Track Severe Weather on mobile